^^
Saratoga-Weather Station Historical Data
Daily Summary for March 23, 2020 Units:  English    Metric   Both
Daily Weekly Monthly Yearly Custom
  High: Low: Average:
Temperature: 64.8 °F 48.4 °F 55.8 °F
Dew Point: 57.4 °F 46.4 °F 50.5 °F
Humidity: 95% 57% 83%
Wind Speed: 10.1mph 0mph 2.5mph
Wind Gust: 13mph - -
Wind- - West
Pressure: 30.4 in 30.1 in -
Precipitation: 0.33 in    
Historical Graphs
 
 
Tabular Data for March 23, 2020
Time Temperature Dew Point Pressure Wind Wind Speed Wind Gust Humidity Rainfall Rate (Hourly) solar
00:03 64.8 °F 57.4 °F 30.1 in West 6 mph 9 mph 77% 0 in 0 W/m2
00:08 64.6 °F 57.2 °F 30.1 in West 8.1 mph 9 mph 77% 0 in 0 W/m2
00:13 64.4 °F 57 °F 30.1 in West 8.1 mph 8 mph 77% 0 in 0 W/m2
00:18 64.2 °F 57.2 °F 30.1 in WSW 6.9 mph 9 mph 78% 0 in 0 W/m2
00:23 64 °F 57 °F 30.1 in WNW 6.9 mph 9 mph 78% 0 in 0 W/m2
00:28 64 °F 57 °F 30.1 in West 6 mph 9 mph 78% 0 in 0 W/m2
00:33 63.9 °F 56.8 °F 30.1 in WSW 6 mph 9 mph 78% 0 in 0 W/m2
00:38 63.9 °F 56.8 °F 30.1 in WNW 4 mph 6 mph 78% 0 in 0 W/m2
00:43 63.9 °F 57.2 °F 30.1 in West 6.9 mph 7 mph 79% 0 in 0 W/m2
00:48 63.7 °F 57 °F 30.1 in WNW 4.9 mph 7 mph 79% 0 in 0 W/m2
00:53 63.7 °F 57 °F 30.1 in WSW 6.9 mph 8 mph 79% 0 in 0 W/m2
00:58 63.5 °F 56.8 °F 30.1 in SW 2.9 mph 4 mph 79% 0 in 0 W/m2
01:03 63.5 °F 56.8 °F 30.1 in West 8.1 mph 10 mph 79% 0 in 0 W/m2
01:08 63.5 °F 56.5 °F 30.1 in West 2 mph 6 mph 78% 0 in 0 W/m2
01:13 63.3 °F 56.3 °F 30.1 in WSW 4.9 mph 8 mph 78% 0 in 0 W/m2
01:18 63.3 °F 56.7 °F 30.1 in West 4 mph 7 mph 79% 0 in 0 W/m2
01:23 63.3 °F 56.7 °F 30.1 in West 2 mph 5 mph 79% 0 in 0 W/m2
01:28 63.1 °F 56.5 °F 30.1 in West 0.9 mph 5 mph 79% 0 in 0 W/m2
01:33 63.1 °F 56.5 °F 30.1 in WNW 2.9 mph 7 mph 79% 0 in 0 W/m2
01:38 63.1 °F 56.5 °F 30.1 in West 2 mph 3 mph 79% 0 in 0 W/m2
01:43 63.1 °F 56.8 °F 30.1 in West 2 mph 6 mph 80% 0 in 0 W/m2
01:48 63 °F 56.7 °F 30.1 in West 4 mph 4 mph 80% 0 in 0 W/m2
01:53 63 °F 56.7 °F 30.1 in West 2.9 mph 4 mph 80% 0 in 0 W/m2
01:58 63 °F 56.7 °F 30.1 in West 6 mph 6 mph 80% 0 in 0 W/m2
02:03 63 °F 56.7 °F 30.1 in West 4 mph 4 mph 80% 0 in 0 W/m2
02:08 63 °F 56.7 °F 30.1 in West 2.9 mph 5 mph 80% 0 in 0 W/m2
02:13 63 °F 56.7 °F 30.1 in WNW 0.9 mph 3 mph 80% 0 in 0 W/m2
02:18 63 °F 56.7 °F 30.1 in West 2.9 mph 3 mph 80% 0 in 0 W/m2
02:23 63 °F 56.7 °F 30.1 in WNW 2.9 mph 4 mph 80% 0 in 0 W/m2
02:28 63 °F 56.7 °F 30.1 in West 2.9 mph 4 mph 80% 0 in 0 W/m2
02:33 63 °F 56.7 °F 30.1 in WNW 2.9 mph 5 mph 80% 0 in 0 W/m2
02:38 62.8 °F 56.5 °F 30.1 in WNW 2 mph 4 mph 80% 0 in 0 W/m2
02:43 62.6 °F 54.1 °F 30.1 in West 6 mph 6 mph 74% 0 in 0 W/m2
02:48 62.6 °F 52 °F 30.1 in WNW 8.9 mph 9 mph 68% 0 in 0 W/m2
02:53 62.6 °F 49.5 °F 30.1 in West 2.9 mph 4 mph 62% 0 in 0 W/m2
02:59 62.6 °F 48.9 °F 30.1 in West 4 mph 4 mph 61% 0 in 0 W/m2
03:04 62.4 °F 48.7 °F 30.2 in West 2.9 mph 10 mph 61% 0 in 0 W/m2
03:09 62.4 °F 49.3 °F 30.2 in WNW 2.9 mph 4 mph 62% 0 in 0 W/m2
03:14 62.2 °F 49.1 °F 30.1 in West 2.9 mph 10 mph 62% 0 in 0 W/m2
03:19 62.2 °F 49.5 °F 30.2 in NW 2.9 mph 3 mph 63% 0 in 0 W/m2
03:24 62.1 °F 49.3 °F 30.2 in WNW 0.9 mph 7 mph 63% 0 in 0 W/m2
03:29 62.1 °F 48.4 °F 30.2 in NW 4 mph 4 mph 61% 0 in 0 W/m2
03:34 62.1 °F 46.6 °F 30.2 in NE 0.9 mph 5 mph 57% 0 in 0 W/m2
03:39 61.9 °F 46.4 °F 30.2 in WNW 4 mph 7 mph 57% 0 in 0 W/m2
03:44 61.9 °F 46.9 °F 30.2 in NW 2.9 mph 5 mph 58% 0 in 0 W/m2
03:49 61.9 °F 46.9 °F 30.2 in WNW 4 mph 4 mph 58% 0 in 0 W/m2
03:54 61.5 °F 48 °F 30.2 in West 2.9 mph 4 mph 61% 0 in 0 W/m2
03:59 61.2 °F 48 °F 30.2 in West 2.9 mph 4 mph 62% 0 in 0 W/m2
04:04 60.6 °F 48 °F 30.2 in WNW 2 mph 6 mph 63% 0 in 0 W/m2
04:09 60.4 °F 48.2 °F 30.2 in WNW 0.9 mph 4 mph 64% 0 in 0 W/m2
04:14 60.3 °F 48 °F 30.2 in NW 2 mph 5 mph 64% 0 in 0 W/m2
04:19 60.1 °F 48.2 °F 30.2 in WNW 4 mph 4 mph 65% 0 in 0 W/m2
04:24 60.1 °F 47.8 °F 30.2 in West 4 mph 8 mph 64% 0 in 0 W/m2
04:29 60.1 °F 48.7 °F 30.2 in West 2 mph 6 mph 66% 0 in 0 W/m2
04:34 59.7 °F 49.1 °F 30.2 in NW 4.9 mph 5 mph 68% 0 in 0 W/m2
04:39 59.2 °F 49.1 °F 30.2 in West 2.9 mph 6 mph 69% 0 in 0 W/m2
04:44 58.8 °F 49.5 °F 30.2 in West 2 mph 4 mph 71% 0 in 0 W/m2
04:49 58.5 °F 49.5 °F 30.2 in West 2.9 mph 3 mph 72% 0 in 0 W/m2
04:54 58.1 °F 50.2 °F 30.2 in West 0.9 mph 2 mph 75% 0 in 0 W/m2
04:59 57.7 °F 50.5 °F 30.2 in West 0.9 mph 1 mph 77% 0 in 0 W/m2
05:04 57.4 °F 50.9 °F 30.2 in Calm   2 mph 79% 0 in 0 W/m2
05:09 57 °F 50.5 °F 30.2 in West 0.9 mph 2 mph 79% 0 in 0 W/m2
05:14 56.8 °F 50.7 °F 30.2 in Calm   1 mph 80% 0 in 0 W/m2
05:19 56.7 °F 50.9 °F 30.2 in West 0.9 mph 2 mph 81% 0 in 0 W/m2
05:24 56.5 °F 50.7 °F 30.2 in SW 2 mph 3 mph 81% 0 in 0 W/m2
05:29 56.5 °F 50.4 °F 30.2 in West 0.9 mph 1 mph 80% 0 in 0 W/m2
05:34 56.7 °F 50.5 °F 30.2 in West 2 mph 3 mph 80% 0 in 0 W/m2
05:39 56.7 °F 50.2 °F 30.2 in WNW 0.9 mph 2 mph 79% 0 in 0 W/m2
05:45 56.7 °F 50.2 °F 30.2 in NW 0.9 mph 2 mph 79% 0 in 0 W/m2
05:50 56.7 °F 50.2 °F 30.2 in NW 0.9 mph 2 mph 79% 0 in 0 W/m2
05:55 56.8 °F 50.4 °F 30.2 in WNW 0.9 mph 2 mph 79% 0 in 0 W/m2
06:00 56.7 °F 50.2 °F 30.2 in West 0.9 mph 2 mph 79% 0 in 0 W/m2
06:05 56.8 °F 50.4 °F 30.2 in Calm   2 mph 79% 0 in 0 W/m2
06:10 56.8 °F 50.7 °F 30.2 in Calm   1 mph 80% 0 in 0 W/m2
06:15 56.8 °F 51.1 °F 30.2 in WNW 2 mph 2 mph 81% 0 in 5 W/m2
06:20 56.8 °F 51.1 °F 30.2 in West 2.9 mph 3 mph 81% 0 in 7 W/m2
06:25 56.7 °F 50.9 °F 30.2 in WNW 0.9 mph 2 mph 81% 0 in 9 W/m2
06:30 56.7 °F 51.3 °F 30.2 in NW 2.9 mph 6 mph 82% 0 in 14 W/m2
06:35 56.7 °F 51.3 °F 30.2 in West 2 mph 4 mph 82% 0 in 23 W/m2
06:40 56.5 °F 51.1 °F 30.2 in NW 2 mph 5 mph 82% 0 in 21 W/m2
06:45 56.5 °F 51.4 °F 30.2 in West 4 mph 8 mph 83% 0 in 14 W/m2
06:50 56.5 °F 51.4 °F 30.2 in West 2.9 mph 7 mph 83% 0 in 12 W/m2
06:55 56.3 °F 51.3 °F 30.2 in West 2 mph 3 mph 83% 0 in 11 W/m2
07:00 56.3 °F 51.3 °F 30.2 in WSW 2.9 mph 6 mph 83% 0 in 11 W/m2
07:05 56.3 °F 50.9 °F 30.2 in NW 2.9 mph 8 mph 82% 0 in 19 W/m2
07:10 56.5 °F 51.4 °F 30.2 in West 6 mph 7 mph 83% 0 in 23 W/m2
07:15 56.3 °F 50.9 °F 30.2 in West 2 mph 8 mph 82% 0 in 19 W/m2
07:20 56.1 °F 51.1 °F 30.2 in West 6 mph 6 mph 83% 0 in 18 W/m2
07:25 55.9 °F 50.9 °F 30.2 in West 2 mph 4 mph 83% 0 in 16 W/m2
07:30 55.9 °F 50.9 °F 30.2 in WNW 2 mph 3 mph 83% 0 in 19 W/m2
07:35 55.9 °F 50.9 °F 30.2 in West 2.9 mph 6 mph 83% 0 in 18 W/m2
07:40 55.9 °F 51.3 °F 30.2 in WNW 0.9 mph 1 mph 84% 0 in 19 W/m2
07:45 55.9 °F 51.3 °F 30.2 in NW 0.9 mph 6 mph 84% 0 in 23 W/m2
07:50 55.9 °F 51.4 °F 30.2 in WNW 2 mph 4 mph 85% 0 in 21 W/m2
07:55 55.9 °F 51.4 °F 30.2 in NW 0.9 mph 2 mph 85% 0 in 21 W/m2
08:00 55.9 °F 51.4 °F 30.2 in West 0.9 mph 4 mph 85% 0 in 28 W/m2
08:05 55.8 °F 51.6 °F 30.2 in West 2 mph 2 mph 86% 0.01 in 26 W/m2
08:10 55.6 °F 51.4 °F 30.2 in West 2 mph 3 mph 86% 0.01 in 21 W/m2
08:15 55.2 °F 51.1 °F 30.2 in WSW 2 mph 6 mph 86% 0.01 in 23 W/m2
08:20 54.9 °F 51.1 °F 30.2 in WSW 4 mph 7 mph 87% 0.02 in 19 W/m2
08:25 54.7 °F 50.9 °F 30.2 in WSW 2 mph 5 mph 87% 0.02 in 23 W/m2
08:30 54.5 °F 50.7 °F 30.2 in West 4 mph 4 mph 87% 0.02 in 30 W/m2
08:35 54.3 °F 50.9 °F 30.2 in WNW 6.9 mph 8 mph 88% 0.02 in 33 W/m2
08:40 54.1 °F 50.4 °F 30.2 in West 6 mph 9 mph 87% 0.02 in 35 W/m2
08:45 54.1 °F 50.4 °F 30.2 in WSW 6.9 mph 11 mph 87% 0.03 in 58 W/m2
08:50 54 °F 49.8 °F 30.2 in WNW 4 mph 8 mph 86% 0.04 in 63 W/m2
08:55 53.4 °F 48.4 °F 30.2 in WNW 4.9 mph 12 mph 83% 0.06 in 49 W/m2
09:00 53.1 °F 47.7 °F 30.2 in WSW 4.9 mph 8 mph 82% 0.06 in 47 W/m2
09:05 52.5 °F 48.2 °F 30.2 in WSW 2 mph 12 mph 85% 0.06 in 51 W/m2
09:10 52.3 °F 48.2 °F 30.2 in West 0.9 mph 2 mph 86% 0.06 in 58 W/m2
09:15 52.2 °F 48.7 °F 30.2 in Calm   2 mph 88% 0.06 in 53 W/m2
09:20 52 °F 48.9 °F 30.2 in West 2 mph 2 mph 89% 0.06 in 58 W/m2
09:25 52.2 °F 49.1 °F 30.2 in WNW 2 mph 2 mph 89% 0.06 in 60 W/m2
09:30 52.2 °F 49.1 °F 30.2 in WSW 2.9 mph 6 mph 89% 0.06 in 77 W/m2
09:35 52.2 °F 48.7 °F 30.2 in WNW 10.1 mph 11 mph 88% 0.06 in 65 W/m2
09:40 52.3 °F 48.9 °F 30.2 in West 2.9 mph 4 mph 88% 0.06 in 62 W/m2
09:45 52.3 °F 48.9 °F 30.2 in West 4 mph 11 mph 88% 0.06 in 51 W/m2
09:50 52.2 °F 48.7 °F 30.2 in NNW 4 mph 9 mph 88% 0.05 in 62 W/m2
09:55 52.2 °F 48.7 °F 30.2 in West 2 mph 8 mph 88% 0.04 in 63 W/m2
10:00 52.2 °F 48.7 °F 30.2 in West 2.9 mph 11 mph 88% 0.04 in 60 W/m2
10:05 51.8 °F 48.4 °F 30.3 in WSW 6.9 mph 8 mph 88% 0.03 in 53 W/m2
10:10 51.6 °F 48.2 °F 30.3 in WNW 2 mph 7 mph 88% 0.04 in 44 W/m2
10:15 51.4 °F 48.4 °F 30.3 in WSW 2.9 mph 12 mph 89% 0.05 in 47 W/m2
10:20 51.3 °F 48.2 °F 30.3 in WSW 8.1 mph 8 mph 89% 0.06 in 56 W/m2
10:25 50.9 °F 48 °F 30.3 in WSW 4.9 mph 9 mph 90% 0.07 in 72 W/m2
10:30 50.7 °F 47.8 °F 30.3 in West 6 mph 8 mph 90% 0.07 in 86 W/m2
10:35 50.5 °F 48 °F 30.3 in WNW 2 mph 4 mph 91% 0.08 in 84 W/m2
10:40 50.5 °F 48 °F 30.3 in WNW 2 mph 3 mph 91% 0.08 in 98 W/m2
10:45 50.7 °F 48.2 °F 30.3 in West 2 mph 3 mph 91% 0.09 in 109 W/m2
10:50 50.7 °F 48.2 °F 30.3 in West 2 mph 4 mph 91% 0.09 in 114 W/m2
10:56 50.7 °F 48.6 °F 30.3 in WSW 2 mph 3 mph 92% 0.09 in 105 W/m2
11:01 50.9 °F 48.7 °F 30.3 in West 2 mph 4 mph 92% 0.09 in 70 W/m2
11:06 50.9 °F 48.7 °F 30.3 in WSW 2.9 mph 5 mph 92% 0.09 in 65 W/m2
11:11 51.1 °F 48.9 °F 30.3 in West 2 mph 3 mph 92% 0.08 in 46 W/m2
11:16 50.9 °F 48.7 °F 30.3 in West 2.9 mph 6 mph 92% 0.07 in 84 W/m2
11:21 50.7 °F 47.8 °F 30.3 in West 4 mph 9 mph 90% 0.06 in 109 W/m2
11:26 50.7 °F 47.8 °F 30.3 in West 2 mph 7 mph 90% 0.06 in 144 W/m2
11:31 50.7 °F 47.7 °F 30.3 in West 2 mph 8 mph 89% 0.05 in 151 W/m2
11:36 50.7 °F 47.3 °F 30.3 in West 8.9 mph 9 mph 88% 0.04 in 137 W/m2
11:41 50.5 °F 47.1 °F 30.3 in West 4 mph 6 mph 88% 0.04 in 121 W/m2
11:46 50.7 °F 47.3 °F 30.3 in West 9 mph 9 mph 88% 0.04 in 116 W/m2
11:52 50.5 °F 47.1 °F 30.3 in West 2.9 mph 4 mph 88% 0.03 in 125 W/m2
11:57 50.5 °F 47.1 °F 30.3 in NNE 2.9 mph 6 mph 88% 0.04 in 125 W/m2
12:02 50.7 °F 47.3 °F 30.3 in WNW 2 mph 4 mph 88% 0.03 in 121 W/m2
12:07 50.9 °F 47.8 °F 30.3 in NW 0.9 mph 5 mph 89% 0.03 in 120 W/m2
12:12 50.9 °F 48 °F 30.3 in WSW 2.9 mph 3 mph 90% 0.03 in 123 W/m2
12:17 50.9 °F 48 °F 30.3 in WSW 0.9 mph 2 mph 90% 0.03 in 114 W/m2
12:22 51.1 °F 48.6 °F 30.3 in Calm   3 mph 91% 0.02 in 116 W/m2
12:27 51.1 °F 48.6 °F 30.3 in Calm   2 mph 91% 0.03 in 93 W/m2
12:32 51.1 °F 48.6 °F 30.3 in WSW 0.9 mph 2 mph 91% 0.02 in 146 W/m2
12:37 51.1 °F 48.6 °F 30.3 in WSW 2 mph 2 mph 91% 0.02 in 130 W/m2
12:42 51.1 °F 48.2 °F 30.3 in Calm   1 mph 90% 0.02 in 139 W/m2
12:47 51.3 °F 48.7 °F 30.3 in Calm   2 mph 91% 0.02 in 165 W/m2
12:52 51.4 °F 48.6 °F 30.3 in Calm   1 mph 90% 0.02 in 197 W/m2
12:57 51.4 °F 48.4 °F 30.3 in Calm   2 mph 89% 0.01 in 142 W/m2
13:02 51.6 °F 48.6 °F 30.3 in Calm   1 mph 89% 0.01 in 178 W/m2
13:07 52 °F 48.9 °F 30.3 in West 2 mph 3 mph 89% 0.01 in 162 W/m2
13:12 52 °F 48.9 °F 30.3 in West 0.9 mph 2 mph 89% 0.01 in 185 W/m2
13:17 52.2 °F 49.1 °F 30.3 in West 0.9 mph 3 mph 89% 0.01 in 216 W/m2
13:22 52.3 °F 48.9 °F 30.3 in West 0.9 mph 3 mph 88% 0.01 in 243 W/m2
13:27 52.5 °F 49.1 °F 30.3 in Calm   1 mph 88% 0 in 236 W/m2
13:32 52.9 °F 49.5 °F 30.3 in West 4 mph 4 mph 88% 0 in 301 W/m2
13:37 52.9 °F 49.5 °F 30.3 in West 2.9 mph 4 mph 88% 0 in 309 W/m2
13:42 53.1 °F 49.6 °F 30.3 in West 2.9 mph 4 mph 88% 0 in 394 W/m2
13:47 53.4 °F 50.2 °F 30.3 in NW 4 mph 4 mph 89% 0 in 450 W/m2
13:52 53.6 °F 50.2 °F 30.3 in West 0.9 mph 3 mph 88% 0 in 404 W/m2
13:57 54 °F 50.2 °F 30.3 in SW 0.9 mph 1 mph 87% 0 in 378 W/m2
14:02 54.3 °F 50.2 °F 30.3 in NW 4 mph 4 mph 86% 0 in 466 W/m2
14:07 54.3 °F 49.8 °F 30.3 in WNW 2 mph 9 mph 85% 0 in 403 W/m2
14:12 54.7 °F 50.5 °F 30.3 in WNW 2 mph 5 mph 86% 0 in 534 W/m2
14:17 54.9 °F 50.4 °F 30.3 in West 2.9 mph 3 mph 85% 0 in 366 W/m2
14:22 54.9 °F 49.5 °F 30.3 in West 6 mph 9 mph 82% 0 in 417 W/m2
14:27 54.9 °F 50.4 °F 30.3 in WSW 2 mph 6 mph 85% 0 in 345 W/m2
14:32 54.9 °F 50.2 °F 30.3 in West 2.9 mph 4 mph 84% 0 in 394 W/m2
14:37 55 °F 50.4 °F 30.3 in NW 4 mph 9 mph 84% 0 in 682 W/m2
14:42 55 °F 49.3 °F 30.3 in WSW 4.9 mph 8 mph 81% 0 in 519 W/m2
14:47 55.2 °F 50.2 °F 30.3 in North 2 mph 7 mph 83% 0 in 267 W/m2
14:52 55 °F 50 °F 30.3 in West 4 mph 6 mph 83% 0 in 376 W/m2
14:57 55 °F 50.4 °F 30.3 in WSW 2.9 mph 7 mph 84% 0 in 362 W/m2
15:02 55.4 °F 50.7 °F 30.3 in NW 2.9 mph 3 mph 84% 0 in 380 W/m2
15:08 55.8 °F 50.7 °F 30.3 in West 2 mph 7 mph 83% 0 in 401 W/m2
15:13 55.9 °F 50.9 °F 30.3 in North 6 mph 7 mph 83% 0 in 441 W/m2
15:18 55.9 °F 50.5 °F 30.3 in NNW 2.9 mph 3 mph 82% 0 in 448 W/m2
15:23 56.5 °F 51.1 °F 30.3 in West 4 mph 8 mph 82% 0 in 531 W/m2
15:28 56.7 °F 50.5 °F 30.3 in WNW 2 mph 6 mph 80% 0 in 396 W/m2
15:33 56.7 °F 50.9 °F 30.3 in West 2.9 mph 6 mph 81% 0 in 406 W/m2
15:38 56.5 °F 49.6 °F 30.3 in WSW 4 mph 13 mph 78% 0 in 432 W/m2
15:43 56.7 °F 50.5 °F 30.3 in NW 4.9 mph 5 mph 80% 0 in 543 W/m2
15:48 57 °F 50.5 °F 30.3 in NW 4.9 mph 13 mph 79% 0 in 429 W/m2
15:53 57 °F 50.2 °F 30.3 in South 0.9 mph 4 mph 78% 0 in 399 W/m2
15:58 57.2 °F 50.7 °F 30.3 in West 2.9 mph 8 mph 79% 0 in 439 W/m2
16:03 57.6 °F 51.1 °F 30.3 in NW 2 mph 3 mph 79% 0 in 404 W/m2
16:08 57.7 °F 50.9 °F 30.3 in SE 0.9 mph 3 mph 78% 0 in 401 W/m2
16:13 57.9 °F 50.7 °F 30.3 in WSW 2.9 mph 6 mph 77% 0 in 446 W/m2
16:18 57.9 °F 50.7 °F 30.3 in WNW 4.9 mph 6 mph 77% 0 in 366 W/m2
16:23 57.9 °F 50.7 °F 30.3 in NW 2.9 mph 5 mph 77% 0 in 320 W/m2
16:28 57.9 °F 50.4 °F 30.3 in WNW 4 mph 7 mph 76% 0 in 429 W/m2
16:33 57.9 °F 50.7 °F 30.3 in West 0.9 mph 7 mph 77% 0 in 464 W/m2
16:38 58.1 °F 50.9 °F 30.3 in West 2.9 mph 7 mph 77% 0 in 367 W/m2
16:43 58.3 °F 50.7 °F 30.3 in West 0.9 mph 5 mph 76% 0 in 359 W/m2
16:48 58.3 °F 50.7 °F 30.3 in West 0.9 mph 7 mph 76% 0 in 392 W/m2
16:53 58.3 °F 51.1 °F 30.3 in NW 2 mph 4 mph 77% 0 in 292 W/m2
16:58 58.5 °F 51.3 °F 30.3 in WNW 4 mph 5 mph 77% 0 in 422 W/m2
17:03 58.5 °F 51.3 °F 30.3 in West 2 mph 11 mph 77% 0 in 313 W/m2
17:08 58.3 °F 51.1 °F 30.3 in West 2 mph 6 mph 77% 0 in 250 W/m2
17:13 58.6 °F 51.4 °F 30.3 in WNW 8.1 mph 11 mph 77% 0 in 234 W/m2
17:18 58.6 °F 51.1 °F 30.3 in NW 2 mph 5 mph 76% 0 in 248 W/m2
17:23 58.5 °F 51.3 °F 30.3 in Calm   10 mph 77% 0 in 378 W/m2
17:28 58.5 °F 51.3 °F 30.3 in NW 2.9 mph 6 mph 77% 0 in 304 W/m2
17:33 58.5 °F 50.9 °F 30.3 in SW 2.9 mph 4 mph 76% 0 in 269 W/m2
17:38 58.6 °F 51.4 °F 30.3 in Calm   1 mph 77% 0 in 232 W/m2
17:43 58.8 °F 51.6 °F 30.3 in North 4 mph 4 mph 77% 0 in 237 W/m2
17:48 58.8 °F 51.3 °F 30.3 in NNE 2 mph 2 mph 76% 0 in 343 W/m2
17:53 59.4 °F 51.8 °F 30.3 in WNW 0.9 mph 3 mph 76% 0 in 306 W/m2
17:59 59.5 °F 52 °F 30.3 in NNW 4 mph 8 mph 76% 0 in 306 W/m2
18:04 59.5 °F 51.6 °F 30.3 in East 0.9 mph 4 mph 75% 0 in 188 W/m2
18:09 59.4 °F 51.1 °F 30.3 in NW 0.9 mph 8 mph 74% 0 in 139 W/m2
18:14 59.2 °F 51.3 °F 30.3 in SW 2 mph 6 mph 75% 0 in 137 W/m2
18:19 58.8 °F 50.9 °F 30.3 in WNW 2 mph 7 mph 75% 0 in 111 W/m2
18:24 58.6 °F 51.1 °F 30.3 in NW 2 mph 3 mph 76% 0 in 37 W/m2
18:29 58.5 °F 51.6 °F 30.3 in West 8.1 mph 11 mph 78% 0 in 21 W/m2
18:34 55.8 °F 49.3 °F 30.3 in West 4 mph 10 mph 79% 0.09 in 54 W/m2
18:39 54.3 °F 49.3 °F 30.3 in West 2 mph 3 mph 83% 0.09 in 141 W/m2
18:44 54 °F 50.2 °F 30.3 in West 4 mph 4 mph 87% 0.09 in 160 W/m2
18:49 53.6 °F 50.2 °F 30.3 in WSW 4.9 mph 7 mph 88% 0.1 in 139 W/m2
18:54 53.8 °F 50.4 °F 30.3 in Calm   3 mph 88% 0.1 in 190 W/m2
18:59 54 °F 50.7 °F 30.3 in Calm   7 mph 89% 0.1 in 162 W/m2
19:04 54.1 °F 50.9 °F 30.3 in ESE 0.9 mph 4 mph 89% 0.1 in 128 W/m2
19:09 54.1 °F 50.9 °F 30.3 in ENE 4 mph 4 mph 89% 0.1 in 153 W/m2
19:14 54.9 °F 52 °F 30.3 in SW 2 mph 3 mph 90% 0.1 in 364 W/m2
19:20 55.6 °F 52.7 °F 30.3 in WNW 2 mph 3 mph 90% 0.1 in 306 W/m2
19:25 55.8 °F 52.3 °F 30.3 in West 2.9 mph 6 mph 88% 0.1 in 267 W/m2
19:30 55.6 °F 51.8 °F 30.3 in West 0.9 mph 3 mph 87% 0.06 in 74 W/m2
19:35 55.2 °F 51.8 °F 30.3 in NNE 0.9 mph 6 mph 88% 0.01 in 97 W/m2
19:40 55 °F 51.6 °F 30.3 in WNW 0.9 mph 3 mph 88% 0.01 in 88 W/m2
19:45 54.9 °F 51.4 °F 30.3 in North 0.9 mph 4 mph 88% 0.01 in 88 W/m2
19:50 54.9 °F 51.4 °F 30.3 in WSW 0.9 mph 6 mph 88% 0 in 176 W/m2
19:55 55 °F 51.8 °F 30.3 in West 2 mph 2 mph 89% 0 in 174 W/m2
20:00 55 °F 51.6 °F 30.3 in WNW 0.9 mph 2 mph 88% 0 in 53 W/m2
20:05 54.7 °F 51.3 °F 30.3 in West 0.9 mph 4 mph 88% 0 in 60 W/m2
20:10 54.7 °F 51.4 °F 30.3 in West 0.9 mph 4 mph 89% 0 in 69 W/m2
20:15 54.5 °F 51.3 °F 30.3 in Calm   1 mph 89% 0 in 39 W/m2
20:20 54.1 °F 50.9 °F 30.3 in SE 4 mph 4 mph 89% 0 in 37 W/m2
20:25 53.8 °F 50.5 °F 30.3 in Calm   1 mph 89% 0 in 40 W/m2
20:30 53.4 °F 50.5 °F 30.3 in NW 2 mph 6 mph 90% 0 in 19 W/m2
20:35 53.2 °F 50.4 °F 30.3 in Calm   1 mph 90% 0 in 14 W/m2
20:40 52.9 °F 50 °F 30.3 in WNW 2 mph 3 mph 90% 0 in 14 W/m2
20:45 52.5 °F 50 °F 30.3 in West 0.9 mph 3 mph 91% 0 in 14 W/m2
20:50 52.5 °F 50 °F 30.4 in WSW 0.9 mph 5 mph 91% 0 in 16 W/m2
20:55 52.3 °F 49.8 °F 30.4 in Calm   2 mph 91% 0 in 14 W/m2
21:00 52.3 °F 49.8 °F 30.4 in NW 0.9 mph 2 mph 91% 0 in 16 W/m2
21:05 52.3 °F 49.8 °F 30.4 in East 2 mph 2 mph 91% 0 in 12 W/m2
21:10 52.3 °F 50 °F 30.4 in Calm   1 mph 92% 0 in 7 W/m2
21:15 52.3 °F 50 °F 30.4 in Calm   2 mph 92% 0 in 0 W/m2
21:20 52.7 °F 50.4 °F 30.4 in WSW 2 mph 3 mph 92% 0 in 0 W/m2
21:25 52.9 °F 50.5 °F 30.4 in West 0.9 mph 2 mph 92% 0 in 0 W/m2
21:30 52.7 °F 50.4 °F 30.4 in SW 0.9 mph 2 mph 92% 0 in 0 W/m2
21:35 52.5 °F 50.2 °F 30.4 in SW 2 mph 2 mph 92% 0 in 0 W/m2
21:40 52.3 °F 50 °F 30.4 in Calm   1 mph 92% 0 in 0 W/m2
21:45 52.2 °F 49.8 °F 30.4 in SW 0.9 mph 2 mph 92% 0 in 0 W/m2
21:50 51.8 °F 49.6 °F 30.4 in SW 0.9 mph 1 mph 92% 0 in 0 W/m2
21:55 51.4 °F 49.3 °F 30.4 in Calm   1 mph 92% 0 in 0 W/m2
22:00 51.3 °F 49.3 °F 30.4 in WSW 0.9 mph 3 mph 93% 0 in 0 W/m2
22:05 50.9 °F 48.9 °F 30.4 in Calm   2 mph 93% 0 in 0 W/m2
22:10 50.7 °F 48.7 °F 30.4 in WSW 0.9 mph 2 mph 93% 0 in 0 W/m2
22:15 50.5 °F 48.6 °F 30.4 in WSW 0.9 mph 2 mph 93% 0 in 0 W/m2
22:20 50.4 °F 48.4 °F 30.4 in WSW 0.9 mph 1 mph 93% 0 in 0 W/m2
22:25 49.8 °F 47.8 °F 30.4 in Calm   1 mph 93% 0 in 0 W/m2
22:30 49.6 °F 47.7 °F 30.4 in WSW 0.9 mph 1 mph 93% 0 in 0 W/m2
22:35 49.5 °F 47.8 °F 30.4 in Calm     94% 0 in 0 W/m2
22:40 49.5 °F 47.8 °F 30.4 in Calm     94% 0 in 0 W/m2
22:45 49.3 °F 47.7 °F 30.4 in Calm   1 mph 94% 0 in 0 W/m2
22:50 49.1 °F 47.5 °F 30.4 in Calm   1 mph 94% 0 in 0 W/m2
22:55 48.9 °F 47.3 °F 30.4 in Calm     94% 0 in 0 W/m2
23:00 48.9 °F 47.3 °F 30.4 in Calm   1 mph 94% 0 in 0 W/m2
23:05 48.7 °F 47.1 °F 30.4 in Calm     94% 0 in 0 W/m2
23:10 48.6 °F 46.9 °F 30.4 in Calm     94% 0 in 0 W/m2
23:15 48.4 °F 46.8 °F 30.4 in Calm     94% 0 in 0 W/m2
23:20 48.4 °F 46.8 °F 30.4 in Calm   1 mph 94% 0 in 0 W/m2
23:25 48.4 °F 46.9 °F 30.4 in West 0.9 mph 2 mph 95% 0 in 0 W/m2
23:30 48.7 °F 47.3 °F 30.4 in West 0.9 mph 4 mph 95% 0 in 0 W/m2
23:35 48.9 °F 47.5 °F 30.4 in Calm   3 mph 95% 0 in 0 W/m2
23:40 49.1 °F 47.7 °F 30.4 in NW 2 mph 3 mph 95% 0 in 0 W/m2
23:46 49.3 °F 47.8 °F 30.4 in WSW 0.9 mph 4 mph 95% 0 in 0 W/m2
23:51 49.3 °F 47.8 °F 30.4 in WNW 0.9 mph 4 mph 95% 0 in 0 W/m2
23:56 49.3 °F 47.8 °F 30.4 in West 2 mph 6 mph 95% 0 in 0 W/m2
Juneau County Weather
Compliments of Weather Underground - 2 mb